Time;durP1;ratioP1;P1;durP2;ratioP2;P2;SDS_P1;SDS_P2;PMS_P1;PMS_P2;Temp;Humidity;BMP_temperature;BMP_pressure;BME280_temperature;BME280_humidity;BME280_pressure;Samples;Min_cycle;Max_cycle;Signal;HPM_P1;HPM_P2
2023/09/22 00:00:18;;;;;;;3.20;1.00;;;;;;;18.58;65.97;95031.13;4971037;28;20696;-70
2023/09/22 00:02:44;;;;;;;3.53;0.90;;;;;;;18.54;65.60;95029.75;4970250;28;20178;-68
2023/09/22 00:05:13;;;;;;;4.73;1.10;;;;;;;18.49;66.50;95030.22;4985391;28;20420;-68
2023/09/22 00:07:40;;;;;;;2.67;0.90;;;;;;;18.48;66.41;95017.94;4988801;28;21012;-69
2023/09/22 00:10:06;;;;;;;2.77;0.80;;;;;;;18.45;66.18;95028.84;4990072;28;20895;-69
2023/09/22 00:12:32;;;;;;;1.73;0.80;;;;;;;18.37;66.49;95034.88;4989731;28;20996;-68
2023/09/22 00:14:58;;;;;;;2.00;0.90;;;;;;;18.37;66.17;95024.25;4988961;28;20482;-69
2023/09/22 00:17:24;;;;;;;3.83;0.90;;;;;;;18.41;66.06;95022.16;4988826;28;20223;-68
2023/09/22 00:19:49;;;;;;;3.97;1.00;;;;;;;18.40;66.68;95018.69;4989324;28;20416;-68
2023/09/22 00:22:15;;;;;;;2.47;1.20;;;;;;;18.39;66.66;95010.84;4989039;28;20424;-69
2023/09/22 00:24:41;;;;;;;1.70;0.80;;;;;;;18.40;66.98;95016.03;4988945;28;20254;-69
2023/09/22 00:27:06;;;;;;;4.30;1.00;;;;;;;18.45;66.37;95012.91;4988615;28;20247;-66
2023/09/22 00:29:31;;;;;;;4.33;1.10;;;;;;;18.40;66.83;95025.78;4988825;28;20255;-68
2023/09/22 00:31:57;;;;;;;6.03;1.20;;;;;;;18.44;66.93;95029.00;4988908;28;20607;-70
2023/09/22 00:34:22;;;;;;;7.43;1.30;;;;;;;18.37;67.21;95034.88;4988706;28;20215;-70
2023/09/22 00:36:49;;;;;;;2.60;1.10;;;;;;;18.44;67.41;95032.47;4988180;28;20275;-68
2023/09/22 00:39:14;;;;;;;4.70;1.20;;;;;;;18.51;67.30;95028.25;4988590;28;20177;-69
2023/09/22 00:41:40;;;;;;;4.07;1.10;;;;;;;18.49;67.62;95030.22;4988586;28;20988;-69
2023/09/22 00:44:05;;;;;;;5.37;1.37;;;;;;;18.48;67.78;95030.38;4988662;28;20898;-69
2023/09/22 00:46:31;;;;;;;1.60;0.90;;;;;;;18.33;68.52;95038.84;4987979;28;20203;-67
2023/09/22 00:48:57;;;;;;;2.73;0.90;;;;;;;18.48;67.89;95030.38;4988361;28;20698;-69
2023/09/22 00:51:22;;;;;;;5.13;1.80;;;;;;;18.38;67.87;95023.31;4988299;28;20204;-69
2023/09/22 00:53:49;;;;;;;1.57;0.83;;;;;;;18.39;67.97;95022.31;4988092;28;20569;-68
2023/09/22 00:56:22;;;;;;;1.40;0.70;;;;;;;18.46;67.95;95024.38;4987668;28;20889;-67
2023/09/22 00:58:49;;;;;;;1.77;0.90;;;;;;;18.39;68.11;95019.66;4988035;28;20419;-69
2023/09/22 01:01:15;;;;;;;1.73;1.00;;;;;;;18.58;67.74;95012.53;4988124;28;20528;-68
2023/09/22 01:03:41;;;;;;;3.07;1.00;;;;;;;18.39;67.74;95017.00;4984675;28;20410;-69
2023/09/22 01:06:10;;;;;;;1.50;0.83;;;;;;;18.28;68.04;95038.44;4968564;28;20536;-69
2023/09/22 01:08:36;;;;;;;1.33;0.80;;;;;;;18.17;68.02;95033.34;4968643;28;20706;-68
2023/09/22 01:11:01;;;;;;;2.53;0.80;;;;;;;18.09;68.15;95033.22;4968543;28;20417;-67
2023/09/22 01:13:27;;;;;;;2.73;1.20;;;;;;;18.18;68.21;95040.31;4968327;28;20224;-67
2023/09/22 01:15:52;;;;;;;2.97;1.00;;;;;;;18.23;68.45;95039.88;4968406;28;20283;-68
2023/09/22 01:18:18;;;;;;;1.80;1.00;;;;;;;18.16;68.81;95044.94;4968521;28;20198;-68
2023/09/22 01:20:44;;;;;;;4.17;1.10;;;;;;;18.18;68.66;95043.78;4968480;28;20184;-69
2023/09/22 01:23:12;;;;;;;1.43;1.03;;;;;;;18.19;68.65;95047.31;4968269;28;20567;-68
2023/09/22 01:25:39;;;;;;;4.33;1.00;;;;;;;18.14;68.89;95044.25;4967690;28;20417;-69
2023/09/22 01:28:06;;;;;;;3.53;1.07;;;;;;;18.15;68.75;95046.75;4967682;28;20445;-68
2023/09/22 01:30:33;;;;;;;1.20;0.70;;;;;;;18.16;68.82;95056.38;4968280;28;20906;-68
2023/09/22 01:33:03;;;;;;;1.93;1.00;;;;;;;18.06;68.95;95062.72;4968065;28;20457;-68
2023/09/22 01:35:33;;;;;;;5.10;1.27;;;;;;;17.98;69.23;95059.00;4968238;28;20425;-68
2023/09/22 01:38:17;;;;;;;1.77;1.00;;;;;;;18.08;69.15;95055.47;4968334;28;20452;-68
2023/09/22 01:40:42;;;;;;;1.30;0.80;;;;;;;17.93;69.72;95055.94;4967660;28;20409;-67
2023/09/22 01:43:08;;;;;;;6.00;1.00;;;;;;;17.97;69.95;95062.59;4953844;28;20488;-68
2023/09/22 01:45:34;;;;;;;7.43;1.20;;;;;;;17.72;70.92;95061.41;4948170;28;20182;-68
2023/09/22 01:47:59;;;;;;;1.93;1.00;;;;;;;17.71;70.51;95061.53;4962359;28;20197;-69
2023/09/22 01:50:25;;;;;;;4.77;1.00;;;;;;;17.81;70.22;95053.59;4968080;28;20220;-68
2023/09/22 01:52:52;;;;;;;2.73;1.00;;;;;;;17.77;70.67;95053.03;4967565;28;20181;-67
2023/09/22 01:55:17;;;;;;;2.50;1.30;;;;;;;17.49;72.13;95050.28;4967470;28;20273;-68
2023/09/22 01:57:46;;;;;;;2.27;0.80;;;;;;;17.57;71.48;95049.56;4966901;28;20544;-69
2023/09/22 02:00:11;;;;;;;2.20;1.00;;;;;;;17.67;70.68;95050.41;4966352;28;20205;-69
2023/09/22 02:02:42;;;;;;;1.83;0.93;;;;;;;17.57;70.60;95052.22;4967621;28;20445;-69
2023/09/22 02:05:08;;;;;;;1.70;1.03;;;;;;;17.49;71.43;95054.75;4967260;28;20181;-67
2023/09/22 02:07:33;;;;;;;1.60;0.90;;;;;;;17.47;71.32;95057.56;4967488;28;20978;-67
2023/09/22 02:10:00;;;;;;;3.63;1.27;;;;;;;17.65;70.20;95062.97;4967822;28;20485;-69
2023/09/22 02:12:25;;;;;;;4.30;1.40;;;;;;;17.41;70.60;95055.50;4967368;28;20216;-68
2023/09/22 02:14:51;;;;;;;7.77;1.50;;;;;;;17.42;70.68;95046.53;4967472;28;20496;-68
2023/09/22 02:17:16;;;;;;;7.80;1.40;;;;;;;17.39;70.44;95049.47;4967184;28;20276;-68
2023/09/22 02:19:42;;;;;;;1.70;0.93;;;;;;;17.39;70.50;95056.59;4967425;28;20253;-67
2023/09/22 02:22:07;;;;;;;1.70;1.00;;;;;;;17.42;70.83;95062.44;4967401;28;20269;-68
2023/09/22 02:24:33;;;;;;;2.23;0.73;;;;;;;17.40;70.11;95056.44;4967457;28;20209;-69
2023/09/22 02:26:58;;;;;;;4.03;1.10;;;;;;;17.47;70.06;95052.25;4966756;28;20204;-68
2023/09/22 02:29:24;;;;;;;5.93;1.50;;;;;;;17.33;70.04;95050.88;4966498;28;20173;-68
2023/09/22 02:31:49;;;;;;;1.90;1.03;;;;;;;17.45;69.63;95037.47;4966987;28;21347;-68
2023/09/22 02:34:20;;;;;;;1.47;0.83;;;;;;;17.38;70.06;95037.19;4967061;28;20213;-67
2023/09/22 02:36:46;;;;;;;1.80;1.00;;;;;;;17.38;69.71;95042.50;4966234;28;20225;-68
2023/09/22 02:39:11;;;;;;;2.70;1.40;;;;;;;17.46;69.47;95041.81;4968282;28;20452;-68
2023/09/22 02:41:37;;;;;;;3.30;1.30;;;;;;;17.45;68.12;95027.69;4967114;28;20708;-70
2023/09/22 02:44:06;;;;;;;1.30;0.80;;;;;;;17.39;67.45;95022.97;4967276;28;20209;-69
2023/09/22 02:46:31;;;;;;;1.70;0.97;;;;;;;17.21;66.94;95022.00;4966905;28;20201;-68
2023/09/22 02:48:57;;;;;;;3.10;1.17;;;;;;;17.19;67.11;95019.50;4967230;28;20489;-69
2023/09/22 02:51:22;;;;;;;5.17;1.23;;;;;;;17.22;66.06;95013.94;4966915;28;20201;-70
2023/09/22 02:53:50;;;;;;;8.60;1.47;;;;;;;17.14;66.08;95019.09;4966830;28;20256;-69
2023/09/22 02:56:16;;;;;;;6.27;1.03;;;;;;;17.14;66.61;95035.81;4966275;28;20185;-68
2023/09/22 02:58:44;;;;;;;3.67;1.23;;;;;;;17.15;66.83;95012.81;4966908;28;20432;-69
2023/09/22 03:01:09;;;;;;;1.80;1.20;;;;;;;17.11;67.04;94998.19;4967103;28;20416;-69
2023/09/22 03:03:36;;;;;;;3.30;1.00;;;;;;;16.99;67.29;95009.91;4967073;28;20405;-68
2023/09/22 03:06:02;;;;;;;2.70;1.07;;;;;;;16.99;67.75;95020.50;4966412;28;20668;-68
2023/09/22 03:08:27;;;;;;;2.50;0.90;;;;;;;16.99;67.59;95029.28;4966669;28;20429;-68
2023/09/22 03:10:52;;;;;;;1.70;1.00;;;;;;;17.03;67.25;95028.03;4967125;28;20177;-70
2023/09/22 03:13:18;;;;;;;8.60;1.73;;;;;;;16.95;67.71;95045.59;4966936;28;20236;-69
2023/09/22 03:15:44;;;;;;;2.67;1.37;;;;;;;17.01;67.35;95064.44;4966766;28;20190;-69
2023/09/22 03:18:09;;;;;;;2.87;1.20;;;;;;;16.93;68.14;95075.72;4967271;28;20284;-68
2023/09/22 03:20:35;;;;;;;5.53;1.40;;;;;;;16.90;67.75;95097.19;4967138;28;20188;-68
2023/09/22 03:23:00;;;;;;;2.50;0.90;;;;;;;16.78;68.10;95094.78;4966828;28;20241;-68
2023/09/22 03:25:25;;;;;;;2.63;1.23;;;;;;;16.78;68.33;95100.09;4966545;28;20196;-68
2023/09/22 03:27:51;;;;;;;2.23;1.07;;;;;;;16.83;68.05;95101.38;4967142;28;20223;-69
2023/09/22 03:30:17;;;;;;;2.20;1.10;;;;;;;16.82;68.19;95099.72;4967283;28;20632;-69
2023/09/22 03:32:42;;;;;;;4.13;2.13;;;;;;;16.81;68.78;95110.44;4966833;28;20174;-69
2023/09/22 03:35:08;;;;;;;3.70;1.30;;;;;;;16.68;69.04;95110.69;4966840;28;20467;-67
2023/09/22 03:37:34;;;;;;;3.53;1.53;;;;;;;16.75;68.73;95116.25;4967311;28;20217;-68
2023/09/22 03:40:12;;;;;;;3.00;1.50;;;;;;;16.86;68.94;95110.84;4967862;28;20201;-68
2023/09/22 03:42:39;;;;;;;2.07;1.00;;;;;;;16.77;69.47;95106.34;4971774;28;20440;-69
2023/09/22 03:45:06;;;;;;;3.10;1.00;;;;;;;16.75;69.30;95105.66;4971565;28;20587;-69
2023/09/22 03:47:32;;;;;;;2.00;1.23;;;;;;;16.56;69.43;95103.78;4971493;28;20822;-69
2023/09/22 03:49:57;;;;;;;2.47;1.13;;;;;;;16.56;69.64;95122.34;4970055;28;20428;-69
2023/09/22 03:52:23;;;;;;;3.37;1.30;;;;;;;16.68;69.68;95119.44;4972155;28;20200;-69
2023/09/22 03:54:48;;;;;;;2.37;1.13;;;;;;;16.67;69.67;95111.63;4970691;28;20201;-69
2023/09/22 03:57:14;;;;;;;2.47;1.97;;;;;;;16.73;69.63;95100.50;4969316;28;20213;-67
2023/09/22 03:59:39;;;;;;;5.53;1.40;;;;;;;16.75;70.02;95103.84;4970007;28;20836;-70
2023/09/22 04:02:06;;;;;;;3.77;1.57;;;;;;;16.74;70.04;95118.06;4969812;28;20226;-68
2023/09/22 04:04:32;;;;;;;2.20;1.30;;;;;;;16.70;70.72;95122.81;4969963;28;20193;-70
2023/09/22 04:06:59;;;;;;;2.13;1.43;;;;;;;16.79;70.38;95130.94;4969452;28;20433;-69
2023/09/22 04:09:25;;;;;;;4.03;1.97;;;;;;;16.89;69.85;95123.81;4969584;28;20182;-68
2023/09/22 04:11:52;;;;;;;4.60;1.60;;;;;;;16.75;70.45;95133.00;4969390;28;20456;-68
2023/09/22 04:14:17;;;;;;;4.30;1.80;;;;;;;16.81;70.16;95134.28;4969706;28;20202;-70
2023/09/22 04:16:43;;;;;;;3.27;1.83;;;;;;;16.80;69.96;95135.28;4969186;28;20437;-68
2023/09/22 04:19:09;;;;;;;4.93;1.70;;;;;;;16.58;71.08;95126.50;4969611;28;20192;-68
2023/09/22 04:21:42;;;;;;;3.50;1.60;;;;;;;16.60;71.21;95129.88;4969299;28;20280;-69
2023/09/22 04:24:09;;;;;;;4.67;1.57;;;;;;;16.46;71.47;95136.41;4969707;28;20417;-69
2023/09/22 04:26:42;;;;;;;4.50;1.20;;;;;;;16.49;71.27;95124.72;4969397;28;20433;-69
2023/09/22 04:29:08;;;;;;;4.20;2.00;;;;;;;16.67;70.95;95119.56;4969947;28;20979;-68
2023/09/22 04:31:33;;;;;;;3.30;1.17;;;;;;;16.69;70.20;95128.22;4970037;28;20516;-68
2023/09/22 04:33:59;;;;;;;2.87;1.30;;;;;;;16.81;69.76;95129.81;4969415;28;20202;-69
2023/09/22 04:36:24;;;;;;;2.60;1.40;;;;;;;16.85;70.00;95119.81;4968912;28;20194;-69
2023/09/22 04:38:52;;;;;;;5.33;1.77;;;;;;;16.83;70.65;95111.97;4963520;28;20189;-69
2023/09/22 04:41:19;;;;;;;3.20;1.50;;;;;;;16.49;70.94;95109.66;4966377;28;20268;-68
2023/09/22 04:43:48;;;;;;;3.00;1.63;;;;;;;16.30;71.66;95080.47;4969200;28;20538;-71
2023/09/22 04:46:15;;;;;;;24.03;3.50;;;;;;;17.59;72.35;95047.63;4969075;28;20431;-69
2023/09/22 04:48:41;;;;;;;20.50;3.07;;;;;;;17.99;66.96;95050.03;4968880;28;20424;-70
2023/09/22 04:51:06;;;;;;;315.50;36.23;;;;;;;18.09;66.60;95062.44;4969001;28;20413;-70
2023/09/22 04:53:32;;;;;;;80.57;8.70;;;;;;;18.16;66.30;95076.78;4968071;28;20229;-70
2023/09/22 04:56:03;;;;;;;142.00;12.93;;;;;;;18.17;66.09;95089.94;4968946;28;20173;-69
2023/09/22 04:58:29;;;;;;;128.53;15.63;;;;;;;18.01;66.04;95095.03;4969103;28;20413;-70
2023/09/22 05:00:55;;;;;;;18.03;3.07;;;;;;;18.17;66.77;95097.91;4968575;28;20803;-70
2023/09/22 05:03:21;;;;;;;82.73;8.17;;;;;;;18.06;66.78;95106.03;4969715;28;20229;-71
2023/09/22 05:05:46;;;;;;;7.57;2.50;;;;;;;17.88;66.12;95116.59;4988276;28;20420;-69
2023/09/22 05:08:12;;;;;;;13.83;2.70;;;;;;;18.20;67.56;95110.03;4988248;28;20203;-69
2023/09/22 05:10:37;;;;;;;23.50;3.30;;;;;;;18.12;67.44;95116.09;4974007;28;20185;-70
2023/09/22 05:13:03;;;;;;;52.30;6.50;;;;;;;18.17;66.89;95123.63;4962586;28;20285;-71
2023/09/22 05:15:29;;;;;;;46.50;5.17;;;;;;;18.26;65.96;95125.41;4968090;28;20181;-68
2023/09/22 05:17:55;;;;;;;143.33;17.13;;;;;;;18.23;64.65;95130.16;4962538;28;20473;-69
2023/09/22 05:20:20;;;;;;;58.30;8.70;;;;;;;18.32;65.76;95148.72;4964267;28;20974;-69
2023/09/22 05:22:46;;;;;;;55.80;9.03;;;;;;;18.19;64.65;95145.56;4967898;28;20593;-69
2023/09/22 05:25:13;;;;;;;218.90;25.80;;;;;;;18.22;64.68;95149.75;4968516;28;20185;-70
2023/09/22 05:27:40;;;;;;;50.30;8.27;;;;;;;18.31;67.04;95139.06;4967411;28;20213;-70
2023/09/22 05:30:08;;;;;;;31.77;4.73;;;;;;;18.38;65.40;95134.03;4965628;28;20441;-67
2023/09/22 05:32:33;;;;;;;5.83;1.50;;;;;;;17.55;66.38;95142.56;4966322;28;20437;-70
2023/09/22 05:34:59;;;;;;;10.77;1.93;;;;;;;17.21;67.78;95142.16;4965878;28;20464;-71
2023/09/22 05:37:25;;;;;;;3.93;2.00;;;;;;;16.71;69.57;95137.72;4964969;28;20944;-70
2023/09/22 05:39:51;;;;;;;8.97;1.50;;;;;;;16.50;70.56;95137.78;4964230;28;20510;-69
2023/09/22 05:42:16;;;;;;;5.93;2.10;;;;;;;16.57;70.90;95151.34;4963219;28;20186;-71
2023/09/22 05:44:43;;;;;;;5.80;2.00;;;;;;;16.60;70.55;95161.66;4962813;28;20440;-70
2023/09/22 05:47:09;;;;;;;5.27;2.10;;;;;;;16.59;70.84;95154.69;4962320;28;20580;-68
2023/09/22 05:49:34;;;;;;;10.37;2.37;;;;;;;16.63;70.84;95161.41;4963514;28;20436;-70
2023/09/22 05:52:00;;;;;;;17.13;3.17;;;;;;;16.48;71.64;95147.69;4965792;28;20188;-69
2023/09/22 05:54:25;;;;;;;6.33;2.10;;;;;;;16.35;71.85;95151.56;4962092;28;20212;-72
2023/09/22 05:56:50;;;;;;;25.43;3.73;;;;;;;16.26;71.87;95163.78;4961621;28;21022;-70
2023/09/22 05:59:16;;;;;;;7.80;1.40;;;;;;;15.98;73.06;95158.19;4963739;28;20193;-71
2023/09/22 06:01:41;;;;;;;14.60;2.47;;;;;;;15.92;73.08;95166.66;4962537;28;20193;-69
2023/09/22 06:04:09;;;;;;;15.97;2.87;;;;;;;16.03;73.33;95173.66;4963366;28;20185;-70
2023/09/22 06:06:35;;;;;;;34.90;3.30;;;;;;;16.24;72.23;95168.34;4961603;28;20209;-69
2023/09/22 06:09:01;;;;;;;8.37;2.10;;;;;;;16.26;72.61;95175.19;4960062;28;20417;-69
2023/09/22 06:11:26;;;;;;;2.43;1.40;;;;;;;16.28;72.02;95181.19;4965682;28;20639;-68
2023/09/22 06:13:52;;;;;;;22.90;3.30;;;;;;;16.22;71.85;95191.47;4966295;28;21038;-71
2023/09/22 06:16:18;;;;;;;9.73;2.17;;;;;;;16.27;71.74;95195.38;4964975;28;20305;-70
2023/09/22 06:18:44;;;;;;;9.10;1.97;;;;;;;16.38;71.10;95201.59;4966197;28;20264;-69
2023/09/22 06:21:10;;;;;;;24.47;3.17;;;;;;;16.37;71.86;95210.47;4965348;28;20205;-69
2023/09/22 06:23:36;;;;;;;7.73;2.40;;;;;;;16.45;71.65;95218.63;4965172;28;20475;-69
2023/09/22 06:26:06;;;;;;;7.43;2.13;;;;;;;16.47;71.85;95221.97;4965342;28;20177;-71
2023/09/22 06:28:33;;;;;;;5.83;2.40;;;;;;;16.52;71.98;95227.72;4965301;28;20440;-71
2023/09/22 06:31:03;;;;;;;4.47;1.77;;;;;;;16.53;71.27;95229.38;4965414;28;20725;-71
2023/09/22 06:33:32;;;;;;;6.40;1.80;;;;;;;16.30;72.04;95226.91;4965359;28;20660;-68
2023/09/22 06:36:08;;;;;;;13.03;3.00;;;;;;;16.45;72.15;95237.16;4965767;28;20445;-69
2023/09/22 06:38:33;;;;;;;8.17;1.80;;;;;;;16.39;72.00;95235.03;4965985;28;20989;-72
2023/09/22 06:41:03;;;;;;;3.97;1.60;;;;;;;16.56;72.05;95242.38;4965601;28;20430;-69
2023/09/22 06:43:29;;;;;;;9.20;1.90;;;;;;;16.52;71.46;95238.31;4967198;28;20181;-72
2023/09/22 06:45:58;;;;;;;10.70;3.00;;;;;;;16.43;71.70;95241.75;4966491;28;20424;-70
2023/09/22 06:48:27;;;;;;;3.87;1.70;;;;;;;16.39;71.86;95243.78;4964104;28;20460;-69
2023/09/22 06:50:53;;;;;;;4.10;1.60;;;;;;;16.14;72.74;95242.41;4966272;28;20447;-69
2023/09/22 06:53:20;;;;;;;2.63;1.80;;;;;;;16.35;72.76;95241.56;4967135;28;20465;-66
2023/09/22 06:55:45;;;;;;;5.83;2.10;;;;;;;16.19;72.78;95237.56;4966390;28;20907;-67
2023/09/22 06:58:11;;;;;;;5.13;1.77;;;;;;;16.23;73.12;95248.75;4966232;28;20461;-69
2023/09/22 07:00:36;;;;;;;5.23;1.87;;;;;;;16.15;73.27;95246.72;4965377;28;20935;-69
2023/09/22 07:03:02;;;;;;;2.40;1.50;;;;;;;15.98;73.71;95252.63;4966990;28;20185;-69
2023/09/22 07:05:27;;;;;;;7.53;2.10;;;;;;;16.28;73.14;95249.19;4969170;28;20181;-68
2023/09/22 07:07:52;;;;;;;1.97;1.20;;;;;;;16.11;73.65;95247.97;4967885;28;20255;-69
2023/09/22 07:10:19;;;;;;;2.03;1.40;;;;;;;15.85;74.01;95242.19;4967233;28;20189;-68
2023/09/22 07:12:45;;;;;;;2.73;1.83;;;;;;;15.89;74.51;95243.63;4967732;28;20185;-67
2023/09/22 07:15:11;;;;;;;9.13;2.13;;;;;;;16.00;74.22;95240.09;4968043;28;20509;-68
2023/09/22 07:17:37;;;;;;;3.00;1.60;;;;;;;16.04;74.19;95245.00;4975482;28;20959;-68
2023/09/22 07:20:04;;;;;;;4.00;1.53;;;;;;;15.99;73.78;95241.03;4974565;28;20194;-68
2023/09/22 07:22:33;;;;;;;4.40;1.40;;;;;;;16.00;74.08;95240.09;4977022;28;20435;-69
2023/09/22 07:24:59;;;;;;;6.20;1.57;;;;;;;16.15;73.29;95236.13;4977836;28;20720;-68
2023/09/22 07:27:25;;;;;;;3.10;1.23;;;;;;;16.09;74.08;95234.03;4978213;28;20440;-68
2023/09/22 07:29:50;;;;;;;6.97;1.30;;;;;;;16.00;73.65;95238.28;4975688;28;20420;-68
2023/09/22 07:32:17;;;;;;;4.00;1.60;;;;;;;15.99;74.47;95251.63;4979043;28;20216;-68
2023/09/22 07:34:42;;;;;;;2.60;1.20;;;;;;;16.00;74.25;95253.31;4977759;28;20264;-67
2023/09/22 07:37:11;;;;;;;6.93;1.60;;;;;;;15.90;75.21;95247.97;4972639;28;20432;-67
2023/09/22 07:39:39;;;;;;;5.47;1.53;;;;;;;15.91;74.74;95248.81;4968505;28;20178;-68
2023/09/22 07:42:05;;;;;;;5.03;1.97;;;;;;;15.52;76.54;95243.16;4963732;28;21163;-67
2023/09/22 07:44:31;;;;;;;2.43;1.50;;;;;;;15.79;75.54;95251.50;4966544;28;20590;-68
2023/09/22 07:46:58;;;;;;;6.00;1.80;;;;;;;16.01;74.70;95239.94;4969732;28;20531;-68
2023/09/22 07:49:25;;;;;;;8.17;1.93;;;;;;;16.04;74.87;95241.53;4969977;28;20173;-68
2023/09/22 07:51:50;;;;;;;2.30;1.70;;;;;;;15.82;75.05;95251.22;4969931;28;20429;-68
2023/09/22 07:54:16;;;;;;;7.30;1.37;;;;;;;15.94;74.38;95245.88;4970234;28;21290;-68
2023/09/22 07:56:42;;;;;;;3.10;1.90;;;;;;;15.84;75.06;95249.28;4969544;28;20216;-68
2023/09/22 07:59:07;;;;;;;5.00;1.80;;;;;;;15.79;75.43;95259.44;4970053;28;20178;-67
2023/09/22 08:01:33;;;;;;;5.20;1.93;;;;;;;15.88;75.41;95260.47;4970082;28;20184;-67
2023/09/22 08:03:58;;;;;;;3.57;1.80;;;;;;;15.85;75.38;95264.22;4967701;28;20527;-67
2023/09/22 08:06:24;;;;;;;2.00;1.47;;;;;;;16.01;74.41;95284.09;4971545;28;20204;-68
2023/09/22 08:08:49;;;;;;;2.17;1.70;;;;;;;16.03;73.74;95279.53;4972499;28;20240;-68
2023/09/22 08:11:17;;;;;;;4.17;1.60;;;;;;;15.90;74.65;95287.66;4971592;28;20177;-66
2023/09/22 08:13:43;;;;;;;3.30;1.73;;;;;;;15.76;74.86;95290.59;4971363;28;20209;-67
2023/09/22 08:16:10;;;;;;;6.93;1.77;;;;;;;15.82;74.80;95282.97;4973674;28;20429;-68
2023/09/22 08:18:37;;;;;;;4.47;2.00;;;;;;;15.87;74.75;95280.81;4975935;28;20882;-67
2023/09/22 08:21:07;;;;;;;10.80;3.30;;;;;;;15.88;74.70;95285.13;4971617;28;20899;-67
2023/09/22 08:23:32;;;;;;;7.23;1.83;;;;;;;15.76;75.13;95278.22;4970012;28;20817;-68
2023/09/22 08:25:58;;;;;;;11.80;2.83;;;;;;;15.87;74.81;95280.81;4969731;28;20444;-67
2023/09/22 08:28:25;;;;;;;6.40;2.10;;;;;;;16.03;74.22;95279.53;4968409;28;20260;-66
2023/09/22 08:30:56;;;;;;;3.47;1.50;;;;;;;15.83;74.60;95284.66;4968322;28;20196;-67
2023/09/22 08:33:21;;;;;;;3.27;1.53;;;;;;;15.69;74.91;95292.03;4969714;28;20452;-66
2023/09/22 08:35:50;;;;;;;5.90;1.70;;;;;;;15.82;75.28;95285.63;4969272;28;20935;-68
2023/09/22 08:38:15;;;;;;;2.80;1.77;;;;;;;15.75;75.71;95295.03;4969101;28;20309;-68
2023/09/22 08:40:40;;;;;;;2.40;1.70;;;;;;;15.88;75.34;95290.41;4969265;28;20413;-68
2023/09/22 08:43:08;;;;;;;3.10;1.93;;;;;;;15.93;75.51;95303.25;4969091;28;20177;-67
2023/09/22 08:45:35;;;;;;;4.00;2.23;;;;;;;15.96;75.27;95308.28;4968877;28;20177;-67
2023/09/22 08:48:01;;;;;;;7.80;2.93;;;;;;;15.88;75.65;95301.00;4969393;28;20437;-67
2023/09/22 08:50:26;;;;;;;30.83;4.90;;;;;;;15.79;75.87;95292.97;4969016;28;20437;-68
2023/09/22 08:52:52;;;;;;;11.97;2.80;;;;;;;15.87;75.66;95282.59;4969180;28;20192;-67
2023/09/22 08:55:18;;;;;;;7.93;2.13;;;;;;;15.87;75.92;95282.59;4966679;28;21002;-68
2023/09/22 08:57:47;;;;;;;33.07;5.83;;;;;;;15.83;76.19;95287.31;4966244;28;20217;-68
2023/09/22 09:00:26;;;;;;;8.80;2.07;;;;;;;15.89;75.48;95285.97;4967951;28;21011;-68
2023/09/22 09:02:54;;;;;;;4.47;2.23;;;;;;;15.92;75.54;95288.38;4969090;28;20643;-68
2023/09/22 09:05:29;;;;;;;3.57;1.63;;;;;;;15.81;76.06;95283.94;4971571;28;20417;-68
2023/09/22 09:08:09;;;;;;;2.77;1.77;;;;;;;16.01;75.18;95286.75;4969620;28;20436;-67
2023/09/22 09:10:35;;;;;;;2.73;1.00;;;;;;;15.82;75.26;95279.50;4969208;28;20409;-67
2023/09/22 09:13:02;;;;;;;6.20;1.77;;;;;;;16.06;74.24;95266.88;4969697;28;20504;-69
2023/09/22 09:15:47;;;;;;;3.93;1.43;;;;;;;16.05;74.41;95278.41;4967400;28;20548;-73
2023/09/22 09:18:16;;;;;;;5.13;1.87;;;;;;;15.80;75.69;95287.56;4968698;28;20440;-69
2023/09/22 09:20:43;;;;;;;2.20;1.60;;;;;;;15.86;75.28;95291.50;4969175;28;20437;-72
2023/09/22 09:23:15;;;;;;;8.10;1.80;;;;;;;16.06;75.21;95300.44;4968179;28;20439;-72
2023/09/22 09:25:51;;;;;;;2.80;1.03;;;;;;;15.90;75.75;95300.88;4965072;28;20902;-71
2023/09/22 09:28:18;;;;;;;1.70;1.10;;;;;;;15.98;75.18;95294.94;4967949;28;20454;-71
2023/09/22 09:30:57;;;;;;;2.13;1.40;;;;;;;15.86;75.95;95291.50;4967651;28;21002;-71
2023/09/22 09:33:30;;;;;;;2.13;1.40;;;;;;;15.91;74.89;95294.59;4964014;28;20559;-69
2023/09/22 09:35:58;;;;;;;2.50;1.10;;;;;;;15.67;74.48;95295.63;4959829;28;20443;-72
2023/09/22 09:38:26;;;;;;;1.93;1.50;;;;;;;15.63;74.22;95304.78;4966619;28;20527;-70
2023/09/22 09:40:52;;;;;;;2.03;1.10;;;;;;;15.67;74.06;95308.03;4968754;28;20428;-71
2023/09/22 09:43:18;;;;;;;3.60;1.70;;;;;;;15.72;73.20;95305.88;4968904;28;20421;-72
2023/09/22 09:45:51;;;;;;;2.10;1.13;;;;;;;15.63;73.47;95303.94;4968456;28;20272;-71
2023/09/22 09:48:18;;;;;;;5.33;2.00;;;;;;;15.72;72.58;95299.75;4967845;28;20206;-70
2023/09/22 09:50:47;;;;;;;6.23;1.40;;;;;;;15.68;72.90;95314.97;4967997;28;20500;-70
2023/09/22 09:53:27;;;;;;;13.50;1.93;;;;;;;15.62;73.25;95304.91;4967219;28;20869;-71
2023/09/22 09:55:59;;;;;;;13.30;2.27;;;;;;;15.74;73.31;95311.88;4967692;28;20933;-70
2023/09/22 09:58:30;;;;;;;12.07;2.67;;;;;;;15.84;72.75;95315.44;4967630;28;20958;-68
2023/09/22 10:00:57;;;;;;;3.53;1.47;;;;;;;15.83;72.35;95318.22;4964167;28;20436;-68
2023/09/22 10:03:25;;;;;;;7.90;1.93;;;;;;;15.79;72.41;95319.44;4967453;28;20448;-70
2023/09/22 10:05:52;;;;;;;5.83;2.13;;;;;;;15.90;72.21;95316.75;4967591;28;20437;-73
2023/09/22 10:08:20;;;;;;;1.97;1.20;;;;;;;15.84;72.14;95319.88;4967333;28;20471;-71
2023/09/22 10:10:50;;;;;;;4.87;2.00;;;;;;;15.83;72.71;95329.63;4965684;28;20524;-71
2023/09/22 10:13:17;;;;;;;5.37;1.47;;;;;;;15.86;72.38;95339.13;4964873;28;20904;-70
2023/09/22 10:15:59;;;;;;;5.63;1.53;;;;;;;15.80;72.37;95329.03;4965546;28;20535;-70
2023/09/22 10:18:47;;;;;;;2.60;1.60;;;;;;;15.74;73.79;95329.56;4967084;28;20449;-69
2023/09/22 10:21:28;;;;;;;1.33;1.07;;;;;;;15.62;73.16;95341.94;4961073;28;20405;-72
2023/09/22 10:24:23;;;;;;;1.80;1.10;;;;;;;15.81;73.12;95342.16;4966695;28;20891;-71
2023/09/22 10:26:55;;;;;;;3.43;1.40;;;;;;;15.86;72.30;95328.53;4964669;28;20632;-71
2023/09/22 10:29:35;;;;;;;1.60;1.00;;;;;;;15.85;72.55;95325.06;4965656;28;20457;-71
2023/09/22 10:32:19;;;;;;;1.50;0.97;;;;;;;15.77;71.39;95322.19;4969165;28;20436;-68
2023/09/22 10:34:49;;;;;;;18.07;2.60;;;;;;;15.79;72.07;95333.50;4964606;28;20571;-69
2023/09/22 10:37:19;;;;;;;6.17;1.37;;;;;;;15.96;71.72;95341.84;4961414;28;20457;-69
2023/09/22 10:40:08;;;;;;;3.77;1.03;;;;;;;15.77;71.98;95339.88;4965673;28;20521;-70
2023/09/22 10:42:41;;;;;;;9.40;1.90;;;;;;;15.80;72.25;95339.63;4963547;28;20806;-70
2023/09/22 10:45:07;;;;;;;7.87;3.53;;;;;;;15.84;71.87;95335.75;4958063;28;20793;-73
2023/09/22 10:47:40;;;;;;;3.40;1.30;;;;;;;15.84;71.12;95333.94;4964339;28;20461;-71
2023/09/22 10:50:19;;;;;;;12.50;2.20;;;;;;;15.83;71.61;95334.09;4962453;28;20207;-70
2023/09/22 10:52:58;;;;;;;10.03;1.23;;;;;;;15.95;70.72;95342.84;4965925;28;20451;-71
2023/09/22 10:55:27;;;;;;;2.13;1.23;;;;;;;16.05;70.71;95328.69;4969056;28;20487;-74
2023/09/22 10:57:54;;;;;;;8.83;1.40;;;;;;;16.02;71.13;95334.25;4970955;28;20468;-71
2023/09/22 11:00:20;;;;;;;3.83;1.30;;;;;;;16.11;70.45;95331.81;4968330;28;20436;-69
2023/09/22 11:02:45;;;;;;;2.10;1.37;;;;;;;15.94;70.11;95328.75;4964312;28;20451;-73
2023/09/22 11:05:12;;;;;;;11.53;2.10;;;;;;;15.83;70.04;95342.88;4964642;28;20521;-70
2023/09/22 11:07:37;;;;;;;5.63;1.60;;;;;;;15.89;69.89;95357.38;4962191;28;20208;-73
2023/09/22 11:10:04;;;;;;;4.30;1.30;;;;;;;15.93;69.57;95355.34;4964976;28;20437;-73
2023/09/22 11:12:31;;;;;;;4.23;1.23;;;;;;;15.88;70.08;95347.78;4964397;28;20285;-73
2023/09/22 11:14:57;;;;;;;1.93;1.40;;;;;;;15.94;69.39;95346.44;4964506;28;20468;-71
2023/09/22 11:17:36;;;;;;;3.67;1.57;;;;;;;15.92;70.21;95345.72;4963130;28;21336;-72
2023/09/22 11:20:03;;;;;;;3.27;1.23;;;;;;;15.84;70.38;95330.47;4972867;28;20263;-71
2023/09/22 11:22:32;;;;;;;5.93;1.40;;;;;;;16.00;68.66;95330.06;4973243;28;20427;-71
2023/09/22 11:24:58;;;;;;;3.63;1.23;;;;;;;16.00;68.87;95340.66;4957927;28;21154;-71
2023/09/22 11:27:24;;;;;;;2.83;1.20;;;;;;;16.06;68.73;95341.00;4966286;28;20444;-71
2023/09/22 11:29:49;;;;;;;1.97;1.23;;;;;;;16.11;67.43;95345.03;4966636;28;20177;-71
2023/09/22 11:32:15;;;;;;;5.30;1.30;;;;;;;15.94;68.73;95357.84;4965996;28;20185;-70